sensor_id;sensor_type;location;lat;lon;timestamp;temperature;humidity
28763;DHT22;15918;51.270;6.522;2022-11-04T00:01:33;15.20;68.00
28763;DHT22;15918;51.270;6.522;2022-11-04T00:03:59;15.20;67.90
28763;DHT22;15918;51.270;6.522;2022-11-04T00:06:25;15.10;67.80
28763;DHT22;15918;51.270;6.522;2022-11-04T00:08:52;15.20;67.90
28763;DHT22;15918;51.270;6.522;2022-11-04T00:11:18;15.10;67.80
28763;DHT22;15918;51.270;6.522;2022-11-04T00:14:04;15.10;67.80
28763;DHT22;15918;51.270;6.522;2022-11-04T00:16:30;15.10;67.90
28763;DHT22;15918;51.270;6.522;2022-11-04T00:19:14;15.10;67.90
28763;DHT22;15918;51.270;6.522;2022-11-04T00:21:39;15.10;68.00
28763;DHT22;15918;51.270;6.522;2022-11-04T00:24:23;15.10;68.00
28763;DHT22;15918;51.270;6.522;2022-11-04T00:27:18;15.10;68.10
28763;DHT22;15918;51.270;6.522;2022-11-04T00:30:05;15.10;68.10
28763;DHT22;15918;51.270;6.522;2022-11-04T00:32:32;15.00;68.20
28763;DHT22;15918;51.270;6.522;2022-11-04T00:35:17;15.00;68.20
28763;DHT22;15918;51.270;6.522;2022-11-04T00:37:44;15.00;68.30
28763;DHT22;15918;51.270;6.522;2022-11-04T00:40:12;15.10;68.30
28763;DHT22;15918;51.270;6.522;2022-11-04T00:42:38;15.10;68.30
28763;DHT22;15918;51.270;6.522;2022-11-04T00:45:04;15.00;68.20
28763;DHT22;15918;51.270;6.522;2022-11-04T00:47:30;15.10;68.30
28763;DHT22;15918;51.270;6.522;2022-11-04T00:49:56;15.00;68.30
28763;DHT22;15918;51.270;6.522;2022-11-04T00:52:21;15.10;68.40
28763;DHT22;15918;51.270;6.522;2022-11-04T00:54:47;15.00;68.40
28763;DHT22;15918;51.270;6.522;2022-11-04T00:57:13;15.00;68.40
28763;DHT22;15918;51.270;6.522;2022-11-04T00:59:39;15.00;68.40
28763;DHT22;15918;51.270;6.522;2022-11-04T01:02:08;15.00;68.50
28763;DHT22;15918;51.270;6.522;2022-11-04T01:04:35;15.00;68.50
28763;DHT22;15918;51.270;6.522;2022-11-04T01:07:01;15.00;68.50
28763;DHT22;15918;51.270;6.522;2022-11-04T01:09:26;15.00;68.60
28763;DHT22;15918;51.270;6.522;2022-11-04T01:11:52;15.00;68.60
28763;DHT22;15918;51.270;6.522;2022-11-04T01:14:18;15.00;68.60
28763;DHT22;15918;51.270;6.522;2022-11-04T01:16:44;15.00;68.60
28763;DHT22;15918;51.270;6.522;2022-11-04T01:19:11;15.00;68.70
28763;DHT22;15918;51.270;6.522;2022-11-04T01:21:36;15.00;68.70
28763;DHT22;15918;51.270;6.522;2022-11-04T01:24:02;15.00;68.60
28763;DHT22;15918;51.270;6.522;2022-11-04T01:26:29;15.00;68.60
28763;DHT22;15918;51.270;6.522;2022-11-04T01:28:55;14.90;68.50
28763;DHT22;15918;51.270;6.522;2022-11-04T01:31:23;15.00;68.50
28763;DHT22;15918;51.270;6.522;2022-11-04T01:33:51;15.00;68.50
28763;DHT22;15918;51.270;6.522;2022-11-04T01:36:17;15.00;68.50
28763;DHT22;15918;51.270;6.522;2022-11-04T01:38:43;14.90;68.50
28763;DHT22;15918;51.270;6.522;2022-11-04T01:41:19;14.90;68.50
28763;DHT22;15918;51.270;6.522;2022-11-04T01:43:54;14.90;69.20
28763;DHT22;15918;51.270;6.522;2022-11-04T01:46:47;14.90;68.50
28763;DHT22;15918;51.270;6.522;2022-11-04T01:49:25;15.00;68.40
28763;DHT22;15918;51.270;6.522;2022-11-04T01:51:55;14.90;68.40
28763;DHT22;15918;51.270;6.522;2022-11-04T01:54:24;14.90;68.40
28763;DHT22;15918;51.270;6.522;2022-11-04T01:56:50;14.90;68.40
28763;DHT22;15918;51.270;6.522;2022-11-04T01:59:37;14.90;68.40
28763;DHT22;15918;51.270;6.522;2022-11-04T02:02:04;14.90;68.20
28763;DHT22;15918;51.270;6.522;2022-11-04T02:04:30;14.90;68.30
28763;DHT22;15918;51.270;6.522;2022-11-04T02:07:04;14.90;68.20
28763;DHT22;15918;51.270;6.522;2022-11-04T02:09:32;14.80;68.10
28763;DHT22;15918;51.270;6.522;2022-11-04T02:11:59;14.90;68.10
28763;DHT22;15918;51.270;6.522;2022-11-04T02:14:44;14.90;68.10
28763;DHT22;15918;51.270;6.522;2022-11-04T02:22:56;14.80;68.00
28763;DHT22;15918;51.270;6.522;2022-11-04T02:28:15;14.80;68.00
28763;DHT22;15918;51.270;6.522;2022-11-04T02:30:51;14.80;67.90
28763;DHT22;15918;51.270;6.522;2022-11-04T02:36:36;14.70;67.80
28763;DHT22;15918;51.270;6.522;2022-11-04T02:41:57;14.70;67.70
28763;DHT22;15918;51.270;6.522;2022-11-04T02:47:02;14.70;67.80
28763;DHT22;15918;51.270;6.522;2022-11-04T02:49:40;14.70;67.80
28763;DHT22;15918;51.270;6.522;2022-11-04T02:52:19;14.70;67.70
28763;DHT22;15918;51.270;6.522;2022-11-04T02:55:16;14.70;67.80
28763;DHT22;15918;51.270;6.522;2022-11-04T02:57:45;14.70;67.60
28763;DHT22;15918;51.270;6.522;2022-11-04T03:00:13;14.70;67.70
28763;DHT22;15918;51.270;6.522;2022-11-04T03:02:50;14.70;67.70
28763;DHT22;15918;51.270;6.522;2022-11-04T03:05:26;14.70;67.60
28763;DHT22;15918;51.270;6.522;2022-11-04T03:07:55;14.70;67.50
28763;DHT22;15918;51.270;6.522;2022-11-04T03:10:37;14.70;67.50
28763;DHT22;15918;51.270;6.522;2022-11-04T03:13:12;14.70;67.40
28763;DHT22;15918;51.270;6.522;2022-11-04T03:15:41;14.70;67.50
28763;DHT22;15918;51.270;6.522;2022-11-04T03:18:33;14.70;67.40
28763;DHT22;15918;51.270;6.522;2022-11-04T03:21:02;14.70;67.30
28763;DHT22;15918;51.270;6.522;2022-11-04T03:23:28;14.70;67.40
28763;DHT22;15918;51.270;6.522;2022-11-04T03:26:00;14.70;67.40
28763;DHT22;15918;51.270;6.522;2022-11-04T03:28:54;14.70;67.30
28763;DHT22;15918;51.270;6.522;2022-11-04T03:31:31;14.70;67.20
28763;DHT22;15918;51.270;6.522;2022-11-04T03:34:01;14.70;67.30
28763;DHT22;15918;51.270;6.522;2022-11-04T03:36:26;14.60;67.20
28763;DHT22;15918;51.270;6.522;2022-11-04T03:38:53;14.70;67.30
28763;DHT22;15918;51.270;6.522;2022-11-04T03:41:35;14.70;67.20
28763;DHT22;15918;51.270;6.522;2022-11-04T03:44:03;14.70;67.10
28763;DHT22;15918;51.270;6.522;2022-11-04T03:46:28;14.60;67.10
28763;DHT22;15918;51.270;6.522;2022-11-04T03:48:54;14.60;67.00
28763;DHT22;15918;51.270;6.522;2022-11-04T03:51:20;14.60;67.00
28763;DHT22;15918;51.270;6.522;2022-11-04T03:53:46;14.60;67.00
28763;DHT22;15918;51.270;6.522;2022-11-04T03:56:41;14.60;66.80
28763;DHT22;15918;51.270;6.522;2022-11-04T04:02:10;14.60;66.70
28763;DHT22;15918;51.270;6.522;2022-11-04T04:04:47;14.50;66.90
28763;DHT22;15918;51.270;6.522;2022-11-04T04:07:20;14.60;66.80
28763;DHT22;15918;51.270;6.522;2022-11-04T04:10:03;14.50;66.80
28763;DHT22;15918;51.270;6.522;2022-11-04T04:12:51;14.50;66.70
28763;DHT22;15918;51.270;6.522;2022-11-04T04:15:22;14.50;66.80
28763;DHT22;15918;51.270;6.522;2022-11-04T04:17:55;14.50;66.70
28763;DHT22;15918;51.270;6.522;2022-11-04T04:20:25;14.50;66.60
28763;DHT22;15918;51.270;6.522;2022-11-04T04:23:04;14.50;67.50
28763;DHT22;15918;51.270;6.522;2022-11-04T04:25:54;14.50;66.60
28763;DHT22;15918;51.270;6.522;2022-11-04T04:28:39;14.50;66.70
28763;DHT22;15918;51.270;6.522;2022-11-04T04:31:07;14.50;66.60
28763;DHT22;15918;51.270;6.522;2022-11-04T04:33:33;14.50;66.60
28763;DHT22;15918;51.270;6.522;2022-11-04T04:35:59;14.50;66.60
28763;DHT22;15918;51.270;6.522;2022-11-04T04:38:28;14.50;66.50
28763;DHT22;15918;51.270;6.522;2022-11-04T04:41:16;14.50;66.40
28763;DHT22;15918;51.270;6.522;2022-11-04T04:44:02;14.40;66.30
28763;DHT22;15918;51.270;6.522;2022-11-04T04:46:48;14.50;66.40
28763;DHT22;15918;51.270;6.522;2022-11-04T04:49:15;14.40;66.30
28763;DHT22;15918;51.270;6.522;2022-11-04T04:51:44;14.40;66.30
28763;DHT22;15918;51.270;6.522;2022-11-04T04:54:11;14.40;66.10
28763;DHT22;15918;51.270;6.522;2022-11-04T04:56:39;14.40;66.10
28763;DHT22;15918;51.270;6.522;2022-11-04T04:59:05;14.40;66.00
28763;DHT22;15918;51.270;6.522;2022-11-04T05:01:31;14.40;66.00
28763;DHT22;15918;51.270;6.522;2022-11-04T05:03:56;14.40;65.90
28763;DHT22;15918;51.270;6.522;2022-11-04T05:06:22;14.40;65.90
28763;DHT22;15918;51.270;6.522;2022-11-04T05:08:47;14.40;65.80
28763;DHT22;15918;51.270;6.522;2022-11-04T05:11:13;14.40;65.80
28763;DHT22;15918;51.270;6.522;2022-11-04T05:13:39;14.40;65.80
28763;DHT22;15918;51.270;6.522;2022-11-04T05:16:06;14.30;65.80
28763;DHT22;15918;51.270;6.522;2022-11-04T05:18:34;14.40;65.80
28763;DHT22;15918;51.270;6.522;2022-11-04T05:21:04;14.30;65.60
28763;DHT22;15918;51.270;6.522;2022-11-04T05:23:30;14.40;65.60
28763;DHT22;15918;51.270;6.522;2022-11-04T05:25:57;14.40;65.70
28763;DHT22;15918;51.270;6.522;2022-11-04T05:28:23;14.30;65.60
28763;DHT22;15918;51.270;6.522;2022-11-04T05:30:49;14.30;65.60
28763;DHT22;15918;51.270;6.522;2022-11-04T05:33:14;14.30;65.60
28763;DHT22;15918;51.270;6.522;2022-11-04T05:35:40;14.30;65.60
28763;DHT22;15918;51.270;6.522;2022-11-04T05:38:05;14.30;65.70
28763;DHT22;15918;51.270;6.522;2022-11-04T05:40:31;14.30;65.70
28763;DHT22;15918;51.270;6.522;2022-11-04T05:42:58;14.30;65.70
28763;DHT22;15918;51.270;6.522;2022-11-04T05:45:25;14.30;65.80
28763;DHT22;15918;51.270;6.522;2022-11-04T05:48:01;14.20;65.70
28763;DHT22;15918;51.270;6.522;2022-11-04T05:50:28;14.30;65.70
28763;DHT22;15918;51.270;6.522;2022-11-04T05:52:58;14.20;65.70
28763;DHT22;15918;51.270;6.522;2022-11-04T05:55:25;14.30;65.70
28763;DHT22;15918;51.270;6.522;2022-11-04T05:57:51;14.20;65.60
28763;DHT22;15918;51.270;6.522;2022-11-04T06:00:18;14.20;65.60
28763;DHT22;15918;51.270;6.522;2022-11-04T06:02:43;14.20;65.50
28763;DHT22;15918;51.270;6.522;2022-11-04T06:05:09;14.20;65.50
28763;DHT22;15918;51.270;6.522;2022-11-04T06:07:35;14.20;65.40
28763;DHT22;15918;51.270;6.522;2022-11-04T06:10:01;14.20;65.40
28763;DHT22;15918;51.270;6.522;2022-11-04T06:12:27;14.20;65.30
28763;DHT22;15918;51.270;6.522;2022-11-04T06:14:52;14.20;65.20
28763;DHT22;15918;51.270;6.522;2022-11-04T06:17:20;14.20;65.10
28763;DHT22;15918;51.270;6.522;2022-11-04T06:19:46;14.20;65.10
28763;DHT22;15918;51.270;6.522;2022-11-04T06:22:13;14.20;65.10
28763;DHT22;15918;51.270;6.522;2022-11-04T06:24:39;14.10;65.10
28763;DHT22;15918;51.270;6.522;2022-11-04T06:27:05;14.10;65.00
28763;DHT22;15918;51.270;6.522;2022-11-04T06:29:31;14.10;65.10
28763;DHT22;15918;51.270;6.522;2022-11-04T06:31:56;14.10;65.10
28763;DHT22;15918;51.270;6.522;2022-11-04T06:34:22;14.10;65.00
28763;DHT22;15918;51.270;6.522;2022-11-04T06:36:49;14.10;65.10
28763;DHT22;15918;51.270;6.522;2022-11-04T06:39:15;14.10;65.10
28763;DHT22;15918;51.270;6.522;2022-11-04T06:41:40;14.10;65.20
28763;DHT22;15918;51.270;6.522;2022-11-04T06:44:06;14.10;65.10
28763;DHT22;15918;51.270;6.522;2022-11-04T06:46:37;14.10;65.10
28763;DHT22;15918;51.270;6.522;2022-11-04T06:49:11;14.00;65.10
28763;DHT22;15918;51.270;6.522;2022-11-04T06:51:36;14.10;65.10
28763;DHT22;15918;51.270;6.522;2022-11-04T06:54:02;14.00;65.00
28763;DHT22;15918;51.270;6.522;2022-11-04T06:56:28;14.00;65.00
28763;DHT22;15918;51.270;6.522;2022-11-04T06:58:54;14.00;65.00
28763;DHT22;15918;51.270;6.522;2022-11-04T07:01:22;14.00;65.00
28763;DHT22;15918;51.270;6.522;2022-11-04T07:03:49;14.00;65.10
28763;DHT22;15918;51.270;6.522;2022-11-04T07:06:23;14.00;65.10
28763;DHT22;15918;51.270;6.522;2022-11-04T07:08:51;14.00;65.20
28763;DHT22;15918;51.270;6.522;2022-11-04T07:11:19;14.00;65.30
28763;DHT22;15918;51.270;6.522;2022-11-04T07:13:46;14.00;65.40
28763;DHT22;15918;51.270;6.522;2022-11-04T07:16:12;14.00;65.40
28763;DHT22;15918;51.270;6.522;2022-11-04T07:18:37;13.90;65.40
28763;DHT22;15918;51.270;6.522;2022-11-04T07:21:04;14.00;65.50
28763;DHT22;15918;51.270;6.522;2022-11-04T07:23:29;14.00;65.60
28763;DHT22;15918;51.270;6.522;2022-11-04T07:26:00;14.00;65.60
28763;DHT22;15918;51.270;6.522;2022-11-04T07:28:25;14.00;65.70
28763;DHT22;15918;51.270;6.522;2022-11-04T07:30:54;13.90;65.70
28763;DHT22;15918;51.270;6.522;2022-11-04T07:33:20;13.90;65.70
28763;DHT22;15918;51.270;6.522;2022-11-04T07:35:46;13.90;65.70
28763;DHT22;15918;51.270;6.522;2022-11-04T07:38:12;13.90;65.70
28763;DHT22;15918;51.270;6.522;2022-11-04T07:40:37;14.00;65.90
28763;DHT22;15918;51.270;6.522;2022-11-04T07:43:03;13.90;65.90
28763;DHT22;15918;51.270;6.522;2022-11-04T07:45:29;14.00;66.00
28763;DHT22;15918;51.270;6.522;2022-11-04T07:47:55;13.90;66.00
28763;DHT22;15918;51.270;6.522;2022-11-04T07:50:22;13.90;66.10
28763;DHT22;15918;51.270;6.522;2022-11-04T07:52:48;13.90;66.20
28763;DHT22;15918;51.270;6.522;2022-11-04T07:55:16;13.90;66.20
28763;DHT22;15918;51.270;6.522;2022-11-04T07:57:43;13.90;66.30
28763;DHT22;15918;51.270;6.522;2022-11-04T08:00:09;13.90;66.30
28763;DHT22;15918;51.270;6.522;2022-11-04T08:02:36;13.90;66.30
28763;DHT22;15918;51.270;6.522;2022-11-04T08:05:01;13.90;66.30
28763;DHT22;15918;51.270;6.522;2022-11-04T08:07:27;14.00;66.40
28763;DHT22;15918;51.270;6.522;2022-11-04T08:09:52;14.00;66.40
28763;DHT22;15918;51.270;6.522;2022-11-04T08:12:18;14.00;66.50
28763;DHT22;15918;51.270;6.522;2022-11-04T08:14:45;14.00;66.60
28763;DHT22;15918;51.270;6.522;2022-11-04T08:17:10;14.00;66.60
28763;DHT22;15918;51.270;6.522;2022-11-04T08:19:36;13.90;66.50
28763;DHT22;15918;51.270;6.522;2022-11-04T08:22:02;14.00;66.60
28763;DHT22;15918;51.270;6.522;2022-11-04T08:24:27;13.90;66.50
28763;DHT22;15918;51.270;6.522;2022-11-04T08:26:53;13.90;66.50
28763;DHT22;15918;51.270;6.522;2022-11-04T08:29:18;13.90;66.50
28763;DHT22;15918;51.270;6.522;2022-11-04T08:31:44;14.00;66.60
28763;DHT22;15918;51.270;6.522;2022-11-04T08:34:10;13.90;66.50
28763;DHT22;15918;51.270;6.522;2022-11-04T08:36:37;13.90;66.60
28763;DHT22;15918;51.270;6.522;2022-11-04T08:39:04;14.00;66.70
28763;DHT22;15918;51.270;6.522;2022-11-04T08:41:31;13.90;66.60
28763;DHT22;15918;51.270;6.522;2022-11-04T08:43:58;13.90;66.70
28763;DHT22;15918;51.270;6.522;2022-11-04T08:46:27;13.90;66.70
28763;DHT22;15918;51.270;6.522;2022-11-04T08:48:53;13.90;66.80
28763;DHT22;15918;51.270;6.522;2022-11-04T08:51:22;14.00;66.80
28763;DHT22;15918;51.270;6.522;2022-11-04T08:53:47;14.00;66.90
28763;DHT22;15918;51.270;6.522;2022-11-04T08:56:20;14.00;67.00
28763;DHT22;15918;51.270;6.522;2022-11-04T08:58:47;14.00;66.80
28763;DHT22;15918;51.270;6.522;2022-11-04T09:01:14;14.00;67.00
28763;DHT22;15918;51.270;6.522;2022-11-04T09:03:41;14.00;67.00
28763;DHT22;15918;51.270;6.522;2022-11-04T09:06:13;14.00;67.00
28763;DHT22;15918;51.270;6.522;2022-11-04T09:08:39;14.00;67.10
28763;DHT22;15918;51.270;6.522;2022-11-04T09:11:06;14.00;67.10
28763;DHT22;15918;51.270;6.522;2022-11-04T09:13:34;14.00;67.20
28763;DHT22;15918;51.270;6.522;2022-11-04T09:16:00;14.10;67.30
28763;DHT22;15918;51.270;6.522;2022-11-04T09:18:26;14.10;67.40
28763;DHT22;15918;51.270;6.522;2022-11-04T09:20:51;14.00;67.20
28763;DHT22;15918;51.270;6.522;2022-11-04T09:23:17;14.00;67.20
28763;DHT22;15918;51.270;6.522;2022-11-04T09:25:42;14.10;67.40
28763;DHT22;15918;51.270;6.522;2022-11-04T09:28:08;14.10;67.40
28763;DHT22;15918;51.270;6.522;2022-11-04T09:30:35;14.10;67.40
28763;DHT22;15918;51.270;6.522;2022-11-04T09:33:01;14.10;67.40
28763;DHT22;15918;51.270;6.522;2022-11-04T09:35:27;14.10;67.40
28763;DHT22;15918;51.270;6.522;2022-11-04T09:37:53;14.10;67.50
28763;DHT22;15918;51.270;6.522;2022-11-04T09:40:21;14.10;67.50
28763;DHT22;15918;51.270;6.522;2022-11-04T09:45:41;14.10;67.60
28763;DHT22;15918;51.270;6.522;2022-11-04T09:48:13;14.10;67.70
28763;DHT22;15918;51.270;6.522;2022-11-04T09:50:47;14.10;67.60
28763;DHT22;15918;51.270;6.522;2022-11-04T09:56:03;14.10;67.70
28763;DHT22;15918;51.270;6.522;2022-11-04T09:58:36;14.20;67.70
28763;DHT22;15918;51.270;6.522;2022-11-04T10:15:24;14.20;68.20
28763;DHT22;15918;51.270;6.522;2022-11-04T10:26:12;14.20;68.30
28763;DHT22;15918;51.270;6.522;2022-11-04T10:28:42;14.30;68.30
28763;DHT22;15918;51.270;6.522;2022-11-04T10:31:12;14.20;68.30
28763;DHT22;15918;51.270;6.522;2022-11-04T10:34:02;14.30;68.20
28763;DHT22;15918;51.270;6.522;2022-11-04T10:36:30;14.30;68.20
28763;DHT22;15918;51.270;6.522;2022-11-04T10:38:57;14.30;68.30
28763;DHT22;15918;51.270;6.522;2022-11-04T10:43:51;14.30;68.10
28763;DHT22;15918;51.270;6.522;2022-11-04T10:46:39;14.30;68.20
28763;DHT22;15918;51.270;6.522;2022-11-04T10:51:53;14.40;68.20
28763;DHT22;15918;51.270;6.522;2022-11-04T10:54:20;14.30;68.20
28763;DHT22;15918;51.270;6.522;2022-11-04T10:56:51;14.40;68.10
28763;DHT22;15918;51.270;6.522;2022-11-04T10:59:26;14.40;68.00
28763;DHT22;15918;51.270;6.522;2022-11-04T11:01:55;14.40;68.10
28763;DHT22;15918;51.270;6.522;2022-11-04T11:04:25;14.40;68.10
28763;DHT22;15918;51.270;6.522;2022-11-04T11:06:52;14.50;68.20
28763;DHT22;15918;51.270;6.522;2022-11-04T11:09:20;14.50;68.10
28763;DHT22;15918;51.270;6.522;2022-11-04T11:11:50;14.50;68.10
28763;DHT22;15918;51.270;6.522;2022-11-04T11:14:30;14.50;68.10
28763;DHT22;15918;51.270;6.522;2022-11-04T11:17:16;14.50;68.00
28763;DHT22;15918;51.270;6.522;2022-11-04T11:19:45;14.60;68.00
28763;DHT22;15918;51.270;6.522;2022-11-04T11:27:56;14.60;68.00
28763;DHT22;15918;51.270;6.522;2022-11-04T11:35:50;14.60;67.90
28763;DHT22;15918;51.270;6.522;2022-11-04T11:38:20;14.70;68.00
28763;DHT22;15918;51.270;6.522;2022-11-04T11:40:47;14.70;68.10
28763;DHT22;15918;51.270;6.522;2022-11-04T11:43:31;14.70;68.00
28763;DHT22;15918;51.270;6.522;2022-11-04T11:45:57;14.70;67.90
28763;DHT22;15918;51.270;6.522;2022-11-04T11:48:31;14.70;68.00
28763;DHT22;15918;51.270;6.522;2022-11-04T11:50:57;14.70;67.90
28763;DHT22;15918;51.270;6.522;2022-11-04T11:53:26;14.70;68.00
28763;DHT22;15918;51.270;6.522;2022-11-04T11:56:03;14.80;68.00
28763;DHT22;15918;51.270;6.522;2022-11-04T11:58:45;14.80;67.90
28763;DHT22;15918;51.270;6.522;2022-11-04T12:01:37;14.80;68.00
28763;DHT22;15918;51.270;6.522;2022-11-04T12:04:04;14.80;67.90
28763;DHT22;15918;51.270;6.522;2022-11-04T12:10:02;14.80;67.90
28763;DHT22;15918;51.270;6.522;2022-11-04T12:13:03;14.80;67.80
28763;DHT22;15918;51.270;6.522;2022-11-04T12:16:01;14.80;67.90
28763;DHT22;15918;51.270;6.522;2022-11-04T12:18:48;14.80;68.00
28763;DHT22;15918;51.270;6.522;2022-11-04T12:21:25;14.80;68.00
28763;DHT22;15918;51.270;6.522;2022-11-04T12:24:03;14.80;68.00
28763;DHT22;15918;51.270;6.522;2022-11-04T12:37:25;14.90;68.00
28763;DHT22;15918;51.270;6.522;2022-11-04T12:42:51;14.90;68.00
28763;DHT22;15918;51.270;6.522;2022-11-04T12:51:26;14.90;67.90
28763;DHT22;15918;51.270;6.522;2022-11-04T12:56:57;14.90;67.80
28763;DHT22;15918;51.270;6.522;2022-11-04T13:00:03;14.90;67.80
28763;DHT22;15918;51.270;6.522;2022-11-04T13:02:35;14.90;67.60
28763;DHT22;15918;51.270;6.522;2022-11-04T13:05:29;14.90;67.80
28763;DHT22;15918;51.270;6.522;2022-11-04T13:08:02;15.00;67.70
28763;DHT22;15918;51.270;6.522;2022-11-04T13:13:05;14.90;67.70
28763;DHT22;15918;51.270;6.522;2022-11-04T13:15:39;14.90;67.70
28763;DHT22;15918;51.270;6.522;2022-11-04T13:18:09;15.00;67.70
28763;DHT22;15918;51.270;6.522;2022-11-04T13:23:26;15.00;67.70
28763;DHT22;15918;51.270;6.522;2022-11-04T13:25:53;15.00;67.80
28763;DHT22;15918;51.270;6.522;2022-11-04T13:28:21;15.00;67.90
28763;DHT22;15918;51.270;6.522;2022-11-04T13:33:51;15.00;67.70
28763;DHT22;15918;51.270;6.522;2022-11-04T13:36:24;15.00;67.70
28763;DHT22;15918;51.270;6.522;2022-11-04T13:38:56;15.00;67.80
28763;DHT22;15918;51.270;6.522;2022-11-04T13:44:40;15.00;67.80
28763;DHT22;15918;51.270;6.522;2022-11-04T13:47:20;15.00;67.80
28763;DHT22;15918;51.270;6.522;2022-11-04T13:49:50;15.00;67.80
28763;DHT22;15918;51.270;6.522;2022-11-04T13:52:16;15.00;67.80
28763;DHT22;15918;51.270;6.522;2022-11-04T13:54:50;15.00;67.80
28763;DHT22;15918;51.270;6.522;2022-11-04T13:57:21;15.00;68.50
28763;DHT22;15918;51.270;6.522;2022-11-04T14:02:46;15.00;67.70
28763;DHT22;15918;51.270;6.522;2022-11-04T14:08:10;15.00;67.80
28763;DHT22;15918;51.270;6.522;2022-11-04T14:18:28;15.00;68.00
28763;DHT22;15918;51.270;6.522;2022-11-04T14:23:39;15.00;67.90
28763;DHT22;15918;51.270;6.522;2022-11-04T14:26:08;15.00;68.00
28763;DHT22;15918;51.270;6.522;2022-11-04T14:28:34;15.10;68.10
28763;DHT22;15918;51.270;6.522;2022-11-04T14:31:05;15.00;68.00
28763;DHT22;15918;51.270;6.522;2022-11-04T14:33:51;15.00;68.00
28763;DHT22;15918;51.270;6.522;2022-11-04T14:41:55;15.10;68.00
28763;DHT22;15918;51.270;6.522;2022-11-04T14:44:30;15.00;68.00
28763;DHT22;15918;51.270;6.522;2022-11-04T14:47:21;15.00;68.10
28763;DHT22;15918;51.270;6.522;2022-11-04T14:49:48;15.00;68.20
28763;DHT22;15918;51.270;6.522;2022-11-04T14:55:12;15.10;68.10
28763;DHT22;15918;51.270;6.522;2022-11-04T14:57:43;15.00;68.20
28763;DHT22;15918;51.270;6.522;2022-11-04T15:00:38;15.00;68.30
28763;DHT22;15918;51.270;6.522;2022-11-04T15:03:21;15.00;68.10
28763;DHT22;15918;51.270;6.522;2022-11-04T15:06:02;15.00;68.40
28763;DHT22;15918;51.270;6.522;2022-11-04T15:11:18;15.00;68.30
28763;DHT22;15918;51.270;6.522;2022-11-04T15:14:15;15.00;68.40
28763;DHT22;15918;51.270;6.522;2022-11-04T15:16:44;15.00;68.40
28763;DHT22;15918;51.270;6.522;2022-11-04T15:19:13;15.00;68.50
28763;DHT22;15918;51.270;6.522;2022-11-04T15:21:46;15.00;68.50
28763;DHT22;15918;51.270;6.522;2022-11-04T15:24:13;15.00;68.40
28763;DHT22;15918;51.270;6.522;2022-11-04T15:26:41;15.00;68.50
28763;DHT22;15918;51.270;6.522;2022-11-04T15:29:09;15.00;68.50
28763;DHT22;15918;51.270;6.522;2022-11-04T15:31:37;15.00;68.40
28763;DHT22;15918;51.270;6.522;2022-11-04T15:34:04;15.10;68.50
28763;DHT22;15918;51.270;6.522;2022-11-04T15:36:41;15.00;68.40
28763;DHT22;15918;51.270;6.522;2022-11-04T15:39:15;15.10;68.30
28763;DHT22;15918;51.270;6.522;2022-11-04T15:41:42;15.00;68.40
28763;DHT22;15918;51.270;6.522;2022-11-04T15:44:30;15.00;68.40
28763;DHT22;15918;51.270;6.522;2022-11-04T15:46:59;15.00;68.50
28763;DHT22;15918;51.270;6.522;2022-11-04T15:49:32;15.00;68.40
28763;DHT22;15918;51.270;6.522;2022-11-04T15:52:07;15.00;68.40
28763;DHT22;15918;51.270;6.522;2022-11-04T15:54:38;14.90;68.40
28763;DHT22;15918;51.270;6.522;2022-11-04T15:57:14;15.00;68.40
28763;DHT22;15918;51.270;6.522;2022-11-04T16:02:49;15.00;68.40
28763;DHT22;15918;51.270;6.522;2022-11-04T16:07:48;14.90;69.30
28763;DHT22;15918;51.270;6.522;2022-11-04T16:10:32;14.90;68.50
28763;DHT22;15918;51.270;6.522;2022-11-04T16:18:43;14.90;68.50
28763;DHT22;15918;51.270;6.522;2022-11-04T16:21:31;14.90;68.60
28763;DHT22;15918;51.270;6.522;2022-11-04T16:24:08;14.90;69.30
28763;DHT22;15918;51.270;6.522;2022-11-04T16:26:42;14.90;68.50
28763;DHT22;15918;51.270;6.522;2022-11-04T16:29:17;14.90;68.60
28763;DHT22;15918;51.270;6.522;2022-11-04T16:31:43;14.90;68.60
28763;DHT22;15918;51.270;6.522;2022-11-04T16:34:12;14.90;68.60
28763;DHT22;15918;51.270;6.522;2022-11-04T16:36:38;14.90;68.60
28763;DHT22;15918;51.270;6.522;2022-11-04T16:39:05;14.80;68.60
28763;DHT22;15918;51.270;6.522;2022-11-04T16:41:38;14.80;68.60
28763;DHT22;15918;51.270;6.522;2022-11-04T16:44:05;14.90;68.70
28763;DHT22;15918;51.270;6.522;2022-11-04T16:46:38;14.80;68.70
28763;DHT22;15918;51.270;6.522;2022-11-04T16:49:05;14.80;68.80
28763;DHT22;15918;51.270;6.522;2022-11-04T16:51:32;14.80;68.70
28763;DHT22;15918;51.270;6.522;2022-11-04T16:53:57;14.80;68.70
28763;DHT22;15918;51.270;6.522;2022-11-04T16:56:24;14.80;68.70
28763;DHT22;15918;51.270;6.522;2022-11-04T16:58:51;14.80;68.70
28763;DHT22;15918;51.270;6.522;2022-11-04T17:01:17;14.80;68.80
28763;DHT22;15918;51.270;6.522;2022-11-04T17:03:43;14.80;68.70
28763;DHT22;15918;51.270;6.522;2022-11-04T17:06:11;14.80;68.70
28763;DHT22;15918;51.270;6.522;2022-11-04T17:08:36;14.80;68.70
28763;DHT22;15918;51.270;6.522;2022-11-04T17:11:02;14.80;68.70
28763;DHT22;15918;51.270;6.522;2022-11-04T17:13:28;14.80;68.70
28763;DHT22;15918;51.270;6.522;2022-11-04T17:15:53;14.80;68.70
28763;DHT22;15918;51.270;6.522;2022-11-04T17:18:19;14.80;68.80
28763;DHT22;15918;51.270;6.522;2022-11-04T17:20:50;14.80;68.80
28763;DHT22;15918;51.270;6.522;2022-11-04T17:23:16;14.80;68.80
28763;DHT22;15918;51.270;6.522;2022-11-04T17:25:42;14.80;68.80
28763;DHT22;15918;51.270;6.522;2022-11-04T17:28:08;14.80;68.80
28763;DHT22;15918;51.270;6.522;2022-11-04T17:30:33;14.80;68.80
28763;DHT22;15918;51.270;6.522;2022-11-04T17:32:59;14.80;68.80
28763;DHT22;15918;51.270;6.522;2022-11-04T17:35:25;14.80;68.80
28763;DHT22;15918;51.270;6.522;2022-11-04T17:37:54;14.80;68.80
28763;DHT22;15918;51.270;6.522;2022-11-04T17:40:21;14.80;68.80
28763;DHT22;15918;51.270;6.522;2022-11-04T17:42:47;14.80;68.80
28763;DHT22;15918;51.270;6.522;2022-11-04T17:45:32;14.80;68.80
28763;DHT22;15918;51.270;6.522;2022-11-04T17:48:04;14.80;69.60
28763;DHT22;15918;51.270;6.522;2022-11-04T17:50:31;14.80;68.80
28763;DHT22;15918;51.270;6.522;2022-11-04T17:52:57;14.80;68.80
28763;DHT22;15918;51.270;6.522;2022-11-04T17:55:23;14.80;68.80
28763;DHT22;15918;51.270;6.522;2022-11-04T17:57:49;14.80;68.80
28763;DHT22;15918;51.270;6.522;2022-11-04T18:00:15;14.80;68.80
28763;DHT22;15918;51.270;6.522;2022-11-04T18:02:41;14.80;68.80
28763;DHT22;15918;51.270;6.522;2022-11-04T18:05:07;14.80;69.60
28763;DHT22;15918;51.270;6.522;2022-11-04T18:07:33;14.80;68.90
28763;DHT22;15918;51.270;6.522;2022-11-04T18:09:59;14.80;68.90
28763;DHT22;15918;51.270;6.522;2022-11-04T18:12:25;14.80;69.00